sensor_id;sensor_type;location;lat;lon;timestamp;temperature;humidity
24207;DHT22;12351;52.284;9.160;2023-05-27T00:00:11;11.80;99.90
24207;DHT22;12351;52.284;9.160;2023-05-27T00:02:59;11.80;99.90
24207;DHT22;12351;52.284;9.160;2023-05-27T00:05:47;11.80;99.90
24207;DHT22;12351;52.284;9.160;2023-05-27T00:08:35;11.80;99.90
24207;DHT22;12351;52.284;9.160;2023-05-27T00:11:25;11.70;99.90
24207;DHT22;12351;52.284;9.160;2023-05-27T00:14:12;11.70;99.90
24207;DHT22;12351;52.284;9.160;2023-05-27T00:17:00;11.70;99.90
24207;DHT22;12351;52.284;9.160;2023-05-27T00:19:51;11.70;99.90
24207;DHT22;12351;52.284;9.160;2023-05-27T00:22:40;11.60;99.90
24207;DHT22;12351;52.284;9.160;2023-05-27T00:25:29;11.70;99.90
24207;DHT22;12351;52.284;9.160;2023-05-27T00:28:17;11.60;99.90
24207;DHT22;12351;52.284;9.160;2023-05-27T00:31:05;11.60;99.90
24207;DHT22;12351;52.284;9.160;2023-05-27T00:33:53;11.60;99.90
24207;DHT22;12351;52.284;9.160;2023-05-27T00:36:42;11.60;99.90
24207;DHT22;12351;52.284;9.160;2023-05-27T00:39:30;11.60;99.90
24207;DHT22;12351;52.284;9.160;2023-05-27T00:42:18;11.60;99.90
24207;DHT22;12351;52.284;9.160;2023-05-27T00:45:07;11.60;99.90
24207;DHT22;12351;52.284;9.160;2023-05-27T00:47:55;11.60;99.90
24207;DHT22;12351;52.284;9.160;2023-05-27T00:50:43;11.60;99.90
24207;DHT22;12351;52.284;9.160;2023-05-27T00:53:37;11.60;99.90
24207;DHT22;12351;52.284;9.160;2023-05-27T00:56:23;11.60;99.90
24207;DHT22;12351;52.284;9.160;2023-05-27T00:59:12;11.60;99.90
24207;DHT22;12351;52.284;9.160;2023-05-27T01:02:00;11.60;99.90
24207;DHT22;12351;52.284;9.160;2023-05-27T01:04:48;11.50;99.90
24207;DHT22;12351;52.284;9.160;2023-05-27T01:10:33;11.50;99.90
24207;DHT22;12351;52.284;9.160;2023-05-27T01:15:59;11.50;99.90
24207;DHT22;12351;52.284;9.160;2023-05-27T01:18:49;11.50;99.90
24207;DHT22;12351;52.284;9.160;2023-05-27T01:21:40;11.50;99.90
24207;DHT22;12351;52.284;9.160;2023-05-27T01:24:31;11.50;99.90
24207;DHT22;12351;52.284;9.160;2023-05-27T01:27:20;11.50;99.90
24207;DHT22;12351;52.284;9.160;2023-05-27T01:30:09;11.50;99.90
24207;DHT22;12351;52.284;9.160;2023-05-27T01:35:51;11.40;99.90
24207;DHT22;12351;52.284;9.160;2023-05-27T01:38:42;11.40;99.90
24207;DHT22;12351;52.284;9.160;2023-05-27T01:41:31;11.40;99.90
24207;DHT22;12351;52.284;9.160;2023-05-27T01:44:19;11.30;99.90
24207;DHT22;12351;52.284;9.160;2023-05-27T01:47:08;11.30;99.90
24207;DHT22;12351;52.284;9.160;2023-05-27T01:49:56;11.30;99.90
24207;DHT22;12351;52.284;9.160;2023-05-27T01:52:44;11.20;99.90
24207;DHT22;12351;52.284;9.160;2023-05-27T01:55:32;11.20;99.90
24207;DHT22;12351;52.284;9.160;2023-05-27T01:58:20;11.10;99.90
24207;DHT22;12351;52.284;9.160;2023-05-27T02:01:08;11.10;99.90
24207;DHT22;12351;52.284;9.160;2023-05-27T02:03:57;11.10;99.90
24207;DHT22;12351;52.284;9.160;2023-05-27T02:06:45;11.10;99.90
24207;DHT22;12351;52.284;9.160;2023-05-27T02:09:33;11.10;99.90
24207;DHT22;12351;52.284;9.160;2023-05-27T02:12:21;11.10;99.90
24207;DHT22;12351;52.284;9.160;2023-05-27T02:15:08;11.10;99.90
24207;DHT22;12351;52.284;9.160;2023-05-27T02:17:57;11.10;99.90
24207;DHT22;12351;52.284;9.160;2023-05-27T02:20:45;11.10;99.90
24207;DHT22;12351;52.284;9.160;2023-05-27T02:23:33;11.10;99.90
24207;DHT22;12351;52.284;9.160;2023-05-27T02:26:22;11.10;99.90
24207;DHT22;12351;52.284;9.160;2023-05-27T02:29:10;11.10;99.90
24207;DHT22;12351;52.284;9.160;2023-05-27T02:31:58;11.00;99.90
24207;DHT22;12351;52.284;9.160;2023-05-27T02:34:46;11.00;99.90
24207;DHT22;12351;52.284;9.160;2023-05-27T02:37:34;11.10;99.90
24207;DHT22;12351;52.284;9.160;2023-05-27T02:40:26;11.00;99.90
24207;DHT22;12351;52.284;9.160;2023-05-27T02:43:13;11.00;99.90
24207;DHT22;12351;52.284;9.160;2023-05-27T02:46:01;11.10;99.90
24207;DHT22;12351;52.284;9.160;2023-05-27T02:48:50;11.10;99.90
24207;DHT22;12351;52.284;9.160;2023-05-27T02:51:38;11.10;99.90
24207;DHT22;12351;52.284;9.160;2023-05-27T02:54:26;11.00;99.90
24207;DHT22;12351;52.284;9.160;2023-05-27T02:57:14;11.00;99.90
24207;DHT22;12351;52.284;9.160;2023-05-27T03:00:04;11.00;99.90
24207;DHT22;12351;52.284;9.160;2023-05-27T03:02:52;11.00;99.90
24207;DHT22;12351;52.284;9.160;2023-05-27T03:05:40;11.00;99.90
24207;DHT22;12351;52.284;9.160;2023-05-27T03:08:28;11.00;99.90
24207;DHT22;12351;52.284;9.160;2023-05-27T03:11:16;11.00;99.90
24207;DHT22;12351;52.284;9.160;2023-05-27T03:14:05;11.00;99.90
24207;DHT22;12351;52.284;9.160;2023-05-27T03:16:54;11.00;99.90
24207;DHT22;12351;52.284;9.160;2023-05-27T03:19:42;11.00;99.90
24207;DHT22;12351;52.284;9.160;2023-05-27T03:22:30;10.90;99.90
24207;DHT22;12351;52.284;9.160;2023-05-27T03:25:17;10.90;99.90
24207;DHT22;12351;52.284;9.160;2023-05-27T03:28:05;10.90;99.90
24207;DHT22;12351;52.284;9.160;2023-05-27T03:30:54;10.90;99.90
24207;DHT22;12351;52.284;9.160;2023-05-27T03:33:43;10.90;99.90
24207;DHT22;12351;52.284;9.160;2023-05-27T03:36:31;10.90;99.90
24207;DHT22;12351;52.284;9.160;2023-05-27T03:39:20;11.00;99.90
24207;DHT22;12351;52.284;9.160;2023-05-27T03:42:07;11.10;99.90
24207;DHT22;12351;52.284;9.160;2023-05-27T03:44:56;11.30;99.90
24207;DHT22;12351;52.284;9.160;2023-05-27T03:47:44;11.40;99.90
24207;DHT22;12351;52.284;9.160;2023-05-27T03:50:33;11.50;99.90
24207;DHT22;12351;52.284;9.160;2023-05-27T03:53:21;11.40;99.90
24207;DHT22;12351;52.284;9.160;2023-05-27T03:56:09;11.50;99.90
24207;DHT22;12351;52.284;9.160;2023-05-27T03:58:57;11.60;99.90
24207;DHT22;12351;52.284;9.160;2023-05-27T04:01:45;11.30;99.90
24207;DHT22;12351;52.284;9.160;2023-05-27T04:04:34;11.10;99.90
24207;DHT22;12351;52.284;9.160;2023-05-27T04:07:22;11.00;99.90
24207;DHT22;12351;52.284;9.160;2023-05-27T04:10:11;11.00;99.90
24207;DHT22;12351;52.284;9.160;2023-05-27T04:13:00;11.00;99.90
24207;DHT22;12351;52.284;9.160;2023-05-27T04:15:48;10.90;99.90
24207;DHT22;12351;52.284;9.160;2023-05-27T04:18:36;11.00;99.90
24207;DHT22;12351;52.284;9.160;2023-05-27T04:21:23;11.00;99.90
24207;DHT22;12351;52.284;9.160;2023-05-27T04:24:11;11.00;99.90
24207;DHT22;12351;52.284;9.160;2023-05-27T04:26:59;11.10;99.90
24207;DHT22;12351;52.284;9.160;2023-05-27T04:29:48;11.10;99.90
24207;DHT22;12351;52.284;9.160;2023-05-27T04:32:38;11.10;99.90
24207;DHT22;12351;52.284;9.160;2023-05-27T04:35:27;11.10;99.90
24207;DHT22;12351;52.284;9.160;2023-05-27T04:38:16;11.10;99.90
24207;DHT22;12351;52.284;9.160;2023-05-27T04:41:05;11.10;99.90
24207;DHT22;12351;52.284;9.160;2023-05-27T04:43:54;11.20;99.90
24207;DHT22;12351;52.284;9.160;2023-05-27T04:46:43;11.20;99.90
24207;DHT22;12351;52.284;9.160;2023-05-27T04:49:32;11.30;99.90
24207;DHT22;12351;52.284;9.160;2023-05-27T04:52:21;11.30;99.90
24207;DHT22;12351;52.284;9.160;2023-05-27T04:55:11;11.30;99.90
24207;DHT22;12351;52.284;9.160;2023-05-27T04:57:59;11.30;99.90
24207;DHT22;12351;52.284;9.160;2023-05-27T05:00:49;11.40;99.90
24207;DHT22;12351;52.284;9.160;2023-05-27T05:03:38;11.40;99.90
24207;DHT22;12351;52.284;9.160;2023-05-27T05:06:28;11.50;99.90
24207;DHT22;12351;52.284;9.160;2023-05-27T05:09:16;11.50;99.90
24207;DHT22;12351;52.284;9.160;2023-05-27T05:12:04;11.60;99.90
24207;DHT22;12351;52.284;9.160;2023-05-27T05:14:53;11.70;99.90
24207;DHT22;12351;52.284;9.160;2023-05-27T05:17:40;11.70;99.90
24207;DHT22;12351;52.284;9.160;2023-05-27T05:20:28;11.70;99.90
24207;DHT22;12351;52.284;9.160;2023-05-27T05:23:16;11.70;99.90
24207;DHT22;12351;52.284;9.160;2023-05-27T05:26:06;11.70;99.90
24207;DHT22;12351;52.284;9.160;2023-05-27T05:28:55;11.70;99.90
24207;DHT22;12351;52.284;9.160;2023-05-27T05:31:43;11.90;99.90
24207;DHT22;12351;52.284;9.160;2023-05-27T05:34:31;11.80;99.90
24207;DHT22;12351;52.284;9.160;2023-05-27T05:37:19;11.90;99.90
24207;DHT22;12351;52.284;9.160;2023-05-27T05:40:08;12.00;99.90
24207;DHT22;12351;52.284;9.160;2023-05-27T05:42:56;12.10;99.90
24207;DHT22;12351;52.284;9.160;2023-05-27T05:45:44;12.10;99.90
24207;DHT22;12351;52.284;9.160;2023-05-27T05:48:32;12.00;99.90
24207;DHT22;12351;52.284;9.160;2023-05-27T05:51:20;12.00;99.90
24207;DHT22;12351;52.284;9.160;2023-05-27T05:54:08;12.00;99.90
24207;DHT22;12351;52.284;9.160;2023-05-27T05:56:56;12.10;99.90
24207;DHT22;12351;52.284;9.160;2023-05-27T05:59:44;12.20;99.90
24207;DHT22;12351;52.284;9.160;2023-05-27T06:02:32;12.30;99.90
24207;DHT22;12351;52.284;9.160;2023-05-27T06:05:20;12.40;99.90
24207;DHT22;12351;52.284;9.160;2023-05-27T06:08:09;12.40;99.90
24207;DHT22;12351;52.284;9.160;2023-05-27T06:10:57;12.40;99.90
24207;DHT22;12351;52.284;9.160;2023-05-27T06:13:46;12.50;99.90
24207;DHT22;12351;52.284;9.160;2023-05-27T06:16:34;12.60;99.90
24207;DHT22;12351;52.284;9.160;2023-05-27T06:19:23;12.70;99.90
24207;DHT22;12351;52.284;9.160;2023-05-27T06:22:11;12.70;99.90
24207;DHT22;12351;52.284;9.160;2023-05-27T06:24:59;12.80;99.90
24207;DHT22;12351;52.284;9.160;2023-05-27T06:27:47;12.90;99.90
24207;DHT22;12351;52.284;9.160;2023-05-27T06:30:36;13.00;99.90
24207;DHT22;12351;52.284;9.160;2023-05-27T06:33:24;13.00;99.90
24207;DHT22;12351;52.284;9.160;2023-05-27T06:36:11;13.00;99.90
24207;DHT22;12351;52.284;9.160;2023-05-27T06:39:00;13.10;99.90
24207;DHT22;12351;52.284;9.160;2023-05-27T06:41:47;13.20;99.90
24207;DHT22;12351;52.284;9.160;2023-05-27T06:44:35;13.30;99.90
24207;DHT22;12351;52.284;9.160;2023-05-27T06:47:24;13.30;99.90
24207;DHT22;12351;52.284;9.160;2023-05-27T06:50:12;13.30;99.90
24207;DHT22;12351;52.284;9.160;2023-05-27T06:53:00;13.40;99.90
24207;DHT22;12351;52.284;9.160;2023-05-27T06:55:49;13.50;99.90
24207;DHT22;12351;52.284;9.160;2023-05-27T06:58:36;13.50;99.90
24207;DHT22;12351;52.284;9.160;2023-05-27T07:01:25;13.60;99.90
24207;DHT22;12351;52.284;9.160;2023-05-27T07:04:12;13.60;99.90
24207;DHT22;12351;52.284;9.160;2023-05-27T07:07:00;13.50;99.90
24207;DHT22;12351;52.284;9.160;2023-05-27T07:09:51;13.50;99.90
24207;DHT22;12351;52.284;9.160;2023-05-27T07:12:40;13.60;99.90
24207;DHT22;12351;52.284;9.160;2023-05-27T07:15:28;13.70;99.90
24207;DHT22;12351;52.284;9.160;2023-05-27T07:18:17;13.90;99.90
24207;DHT22;12351;52.284;9.160;2023-05-27T07:21:06;14.10;99.90
24207;DHT22;12351;52.284;9.160;2023-05-27T07:23:54;14.10;99.90
24207;DHT22;12351;52.284;9.160;2023-05-27T07:26:44;14.00;99.90
24207;DHT22;12351;52.284;9.160;2023-05-27T07:29:32;14.20;99.90
24207;DHT22;12351;52.284;9.160;2023-05-27T07:32:21;14.20;99.90
24207;DHT22;12351;52.284;9.160;2023-05-27T07:35:09;14.30;99.90
24207;DHT22;12351;52.284;9.160;2023-05-27T07:37:57;14.30;99.90
24207;DHT22;12351;52.284;9.160;2023-05-27T07:40:45;14.30;99.90
24207;DHT22;12351;52.284;9.160;2023-05-27T07:43:33;14.50;99.90
24207;DHT22;12351;52.284;9.160;2023-05-27T07:46:21;14.50;99.90
24207;DHT22;12351;52.284;9.160;2023-05-27T07:49:09;14.50;99.90
24207;DHT22;12351;52.284;9.160;2023-05-27T07:51:58;14.60;99.90
24207;DHT22;12351;52.284;9.160;2023-05-27T07:54:45;14.50;99.90
24207;DHT22;12351;52.284;9.160;2023-05-27T07:57:35;14.80;99.90
24207;DHT22;12351;52.284;9.160;2023-05-27T08:00:23;14.60;99.90
24207;DHT22;12351;52.284;9.160;2023-05-27T08:03:11;14.90;99.90
24207;DHT22;12351;52.284;9.160;2023-05-27T08:05:59;15.10;99.90
24207;DHT22;12351;52.284;9.160;2023-05-27T08:08:47;15.30;99.90
24207;DHT22;12351;52.284;9.160;2023-05-27T08:11:35;15.40;99.90
24207;DHT22;12351;52.284;9.160;2023-05-27T08:14:23;15.10;99.90
24207;DHT22;12351;52.284;9.160;2023-05-27T08:17:13;15.30;99.90
24207;DHT22;12351;52.284;9.160;2023-05-27T08:20:00;15.60;99.90
24207;DHT22;12351;52.284;9.160;2023-05-27T08:22:50;16.00;99.90
24207;DHT22;12351;52.284;9.160;2023-05-27T08:25:38;16.20;99.90
24207;DHT22;12351;52.284;9.160;2023-05-27T08:28:26;16.30;99.90
24207;DHT22;12351;52.284;9.160;2023-05-27T08:31:14;16.30;99.90
24207;DHT22;12351;52.284;9.160;2023-05-27T08:34:02;16.40;99.90
24207;DHT22;12351;52.284;9.160;2023-05-27T08:36:50;16.50;99.90
24207;DHT22;12351;52.284;9.160;2023-05-27T08:39:38;16.70;99.90
24207;DHT22;12351;52.284;9.160;2023-05-27T08:42:26;16.80;99.90
24207;DHT22;12351;52.284;9.160;2023-05-27T08:45:14;16.80;99.90
24207;DHT22;12351;52.284;9.160;2023-05-27T08:48:02;16.80;99.90
24207;DHT22;12351;52.284;9.160;2023-05-27T08:50:50;17.10;99.90
24207;DHT22;12351;52.284;9.160;2023-05-27T08:53:38;17.10;99.90
24207;DHT22;12351;52.284;9.160;2023-05-27T08:56:27;17.10;99.90
24207;DHT22;12351;52.284;9.160;2023-05-27T08:59:17;17.20;99.90
24207;DHT22;12351;52.284;9.160;2023-05-27T09:02:11;17.00;99.90
24207;DHT22;12351;52.284;9.160;2023-05-27T09:04:57;17.00;99.90
24207;DHT22;12351;52.284;9.160;2023-05-27T09:07:45;17.20;99.90
24207;DHT22;12351;52.284;9.160;2023-05-27T09:13:26;17.40;99.90
24207;DHT22;12351;52.284;9.160;2023-05-27T09:16:13;17.50;99.90
24207;DHT22;12351;52.284;9.160;2023-05-27T09:19:01;17.50;99.90
24207;DHT22;12351;52.284;9.160;2023-05-27T09:21:52;17.60;99.90
24207;DHT22;12351;52.284;9.160;2023-05-27T09:24:40;17.70;99.90
24207;DHT22;12351;52.284;9.160;2023-05-27T09:27:30;17.70;99.90
24207;DHT22;12351;52.284;9.160;2023-05-27T09:30:20;17.60;99.90
24207;DHT22;12351;52.284;9.160;2023-05-27T09:33:08;17.70;99.90
24207;DHT22;12351;52.284;9.160;2023-05-27T09:35:56;17.80;99.90
24207;DHT22;12351;52.284;9.160;2023-05-27T09:38:47;18.00;99.90
24207;DHT22;12351;52.284;9.160;2023-05-27T09:41:35;18.10;99.90
24207;DHT22;12351;52.284;9.160;2023-05-27T09:47:16;17.60;99.90
24207;DHT22;12351;52.284;9.160;2023-05-27T09:50:09;17.60;99.90
24207;DHT22;12351;52.284;9.160;2023-05-27T09:52:57;17.70;99.90
24207;DHT22;12351;52.284;9.160;2023-05-27T09:55:47;17.80;99.90
24207;DHT22;12351;52.284;9.160;2023-05-27T10:01:27;18.00;99.90
24207;DHT22;12351;52.284;9.160;2023-05-27T10:04:16;18.00;99.90
24207;DHT22;12351;52.284;9.160;2023-05-27T10:07:06;18.30;99.90
24207;DHT22;12351;52.284;9.160;2023-05-27T10:09:54;18.30;99.90
24207;DHT22;12351;52.284;9.160;2023-05-27T10:12:46;18.30;99.90
24207;DHT22;12351;52.284;9.160;2023-05-27T10:15:34;18.40;99.90
24207;DHT22;12351;52.284;9.160;2023-05-27T10:18:25;18.30;99.90
24207;DHT22;12351;52.284;9.160;2023-05-27T10:21:18;18.50;99.90
24207;DHT22;12351;52.284;9.160;2023-05-27T10:24:04;18.20;99.90
24207;DHT22;12351;52.284;9.160;2023-05-27T10:26:59;18.30;99.90
24207;DHT22;12351;52.284;9.160;2023-05-27T10:29:44;18.30;99.90
24207;DHT22;12351;52.284;9.160;2023-05-27T10:32:41;18.10;99.90
24207;DHT22;12351;52.284;9.160;2023-05-27T10:35:25;18.00;99.90
24207;DHT22;12351;52.284;9.160;2023-05-27T10:38:15;18.20;99.90
24207;DHT22;12351;52.284;9.160;2023-05-27T10:41:05;18.10;99.90
24207;DHT22;12351;52.284;9.160;2023-05-27T10:43:56;18.10;99.90
24207;DHT22;12351;52.284;9.160;2023-05-27T10:46:44;18.00;99.90
24207;DHT22;12351;52.284;9.160;2023-05-27T10:49:34;18.10;99.90
24207;DHT22;12351;52.284;9.160;2023-05-27T10:52:24;18.10;99.90
24207;DHT22;12351;52.284;9.160;2023-05-27T10:55:14;18.20;99.90
24207;DHT22;12351;52.284;9.160;2023-05-27T10:58:02;18.20;99.90
24207;DHT22;12351;52.284;9.160;2023-05-27T11:00:52;18.10;99.90
24207;DHT22;12351;52.284;9.160;2023-05-27T11:03:42;18.20;99.90
24207;DHT22;12351;52.284;9.160;2023-05-27T11:06:31;18.20;99.90
24207;DHT22;12351;52.284;9.160;2023-05-27T11:09:20;18.40;99.90
24207;DHT22;12351;52.284;9.160;2023-05-27T11:12:07;18.30;99.90
24207;DHT22;12351;52.284;9.160;2023-05-27T11:14:56;18.40;99.90
24207;DHT22;12351;52.284;9.160;2023-05-27T11:17:44;18.40;99.90
24207;DHT22;12351;52.284;9.160;2023-05-27T11:20:35;18.50;99.90
24207;DHT22;12351;52.284;9.160;2023-05-27T11:23:33;18.50;99.90
24207;DHT22;12351;52.284;9.160;2023-05-27T11:29:06;18.60;99.90
24207;DHT22;12351;52.284;9.160;2023-05-27T11:31:54;18.60;99.90
24207;DHT22;12351;52.284;9.160;2023-05-27T11:34:44;18.60;99.90
24207;DHT22;12351;52.284;9.160;2023-05-27T11:37:34;18.80;99.90
24207;DHT22;12351;52.284;9.160;2023-05-27T11:40:22;18.90;99.90
24207;DHT22;12351;52.284;9.160;2023-05-27T11:43:09;19.10;99.90
24207;DHT22;12351;52.284;9.160;2023-05-27T11:48:50;18.90;99.90
24207;DHT22;12351;52.284;9.160;2023-05-27T11:51:41;19.00;99.90
24207;DHT22;12351;52.284;9.160;2023-05-27T11:54:30;19.10;99.90
24207;DHT22;12351;52.284;9.160;2023-05-27T11:57:17;19.10;99.90
24207;DHT22;12351;52.284;9.160;2023-05-27T12:00:06;19.10;99.90
24207;DHT22;12351;52.284;9.160;2023-05-27T12:02:55;19.00;99.90
24207;DHT22;12351;52.284;9.160;2023-05-27T12:05:43;19.10;99.90
24207;DHT22;12351;52.284;9.160;2023-05-27T12:08:31;19.30;99.90
24207;DHT22;12351;52.284;9.160;2023-05-27T12:11:18;19.40;99.90
24207;DHT22;12351;52.284;9.160;2023-05-27T12:14:07;19.30;99.90
24207;DHT22;12351;52.284;9.160;2023-05-27T12:16:54;19.50;99.90
24207;DHT22;12351;52.284;9.160;2023-05-27T12:19:43;19.60;99.90
24207;DHT22;12351;52.284;9.160;2023-05-27T12:22:31;19.70;99.90
24207;DHT22;12351;52.284;9.160;2023-05-27T12:25:19;19.80;99.90
24207;DHT22;12351;52.284;9.160;2023-05-27T12:28:08;20.00;99.90
24207;DHT22;12351;52.284;9.160;2023-05-27T12:30:56;19.90;99.90
24207;DHT22;12351;52.284;9.160;2023-05-27T12:33:44;19.90;99.90
24207;DHT22;12351;52.284;9.160;2023-05-27T12:36:32;19.80;99.90
24207;DHT22;12351;52.284;9.160;2023-05-27T12:39:20;19.90;99.90
24207;DHT22;12351;52.284;9.160;2023-05-27T12:42:08;19.70;99.90
24207;DHT22;12351;52.284;9.160;2023-05-27T12:44:55;19.90;99.90
24207;DHT22;12351;52.284;9.160;2023-05-27T12:47:43;20.00;99.90
24207;DHT22;12351;52.284;9.160;2023-05-27T12:50:32;20.10;99.90
24207;DHT22;12351;52.284;9.160;2023-05-27T12:53:20;20.20;99.90
24207;DHT22;12351;52.284;9.160;2023-05-27T12:56:07;20.40;99.90
24207;DHT22;12351;52.284;9.160;2023-05-27T12:58:55;20.40;99.90
24207;DHT22;12351;52.284;9.160;2023-05-27T13:01:43;20.50;99.90
24207;DHT22;12351;52.284;9.160;2023-05-27T13:04:30;20.40;99.90
24207;DHT22;12351;52.284;9.160;2023-05-27T13:07:17;20.40;99.90
24207;DHT22;12351;52.284;9.160;2023-05-27T13:10:10;20.40;99.90
24207;DHT22;12351;52.284;9.160;2023-05-27T13:12:57;20.40;99.90
24207;DHT22;12351;52.284;9.160;2023-05-27T13:15:45;20.50;99.90
24207;DHT22;12351;52.284;9.160;2023-05-27T13:18:33;20.60;99.90
24207;DHT22;12351;52.284;9.160;2023-05-27T13:21:22;20.60;99.90
24207;DHT22;12351;52.284;9.160;2023-05-27T13:24:09;20.40;99.90
24207;DHT22;12351;52.284;9.160;2023-05-27T13:26:56;20.60;99.90
24207;DHT22;12351;52.284;9.160;2023-05-27T13:29:44;20.60;99.90
24207;DHT22;12351;52.284;9.160;2023-05-27T13:32:31;20.70;99.90
24207;DHT22;12351;52.284;9.160;2023-05-27T13:35:20;20.60;99.90
24207;DHT22;12351;52.284;9.160;2023-05-27T13:38:07;20.70;99.90
24207;DHT22;12351;52.284;9.160;2023-05-27T13:40:57;20.90;99.90
24207;DHT22;12351;52.284;9.160;2023-05-27T13:43:46;21.00;99.90
24207;DHT22;12351;52.284;9.160;2023-05-27T13:46:34;21.10;99.90
24207;DHT22;12351;52.284;9.160;2023-05-27T13:49:21;21.20;99.90
24207;DHT22;12351;52.284;9.160;2023-05-27T13:52:08;21.20;99.90
24207;DHT22;12351;52.284;9.160;2023-05-27T13:54:56;21.40;99.90
24207;DHT22;12351;52.284;9.160;2023-05-27T13:57:43;21.30;99.90
24207;DHT22;12351;52.284;9.160;2023-05-27T14:00:31;20.80;99.90
24207;DHT22;12351;52.284;9.160;2023-05-27T14:03:17;21.30;99.90
24207;DHT22;12351;52.284;9.160;2023-05-27T14:06:06;21.40;99.90
24207;DHT22;12351;52.284;9.160;2023-05-27T14:08:55;21.40;99.90
24207;DHT22;12351;52.284;9.160;2023-05-27T14:11:43;21.20;99.90
24207;DHT22;12351;52.284;9.160;2023-05-27T14:14:31;21.20;99.90
24207;DHT22;12351;52.284;9.160;2023-05-27T14:17:17;21.40;99.90
24207;DHT22;12351;52.284;9.160;2023-05-27T14:20:06;21.40;99.90
24207;DHT22;12351;52.284;9.160;2023-05-27T14:22:56;21.60;99.90
24207;DHT22;12351;52.284;9.160;2023-05-27T14:25:45;21.80;99.90
24207;DHT22;12351;52.284;9.160;2023-05-27T14:28:33;21.60;99.90
24207;DHT22;12351;52.284;9.160;2023-05-27T14:31:21;21.80;99.90
24207;DHT22;12351;52.284;9.160;2023-05-27T14:34:08;21.60;99.90
24207;DHT22;12351;52.284;9.160;2023-05-27T14:36:56;21.50;99.90
24207;DHT22;12351;52.284;9.160;2023-05-27T14:39:43;21.60;99.90
24207;DHT22;12351;52.284;9.160;2023-05-27T14:42:30;21.40;99.90
24207;DHT22;12351;52.284;9.160;2023-05-27T14:45:17;21.20;99.90
24207;DHT22;12351;52.284;9.160;2023-05-27T14:48:06;21.30;99.90
24207;DHT22;12351;52.284;9.160;2023-05-27T14:50:54;21.60;99.90
24207;DHT22;12351;52.284;9.160;2023-05-27T14:53:41;21.60;99.90
24207;DHT22;12351;52.284;9.160;2023-05-27T14:56:29;21.60;99.90
24207;DHT22;12351;52.284;9.160;2023-05-27T14:59:18;21.70;99.90
24207;DHT22;12351;52.284;9.160;2023-05-27T15:02:07;21.50;99.90
24207;DHT22;12351;52.284;9.160;2023-05-27T15:04:54;21.40;99.90
24207;DHT22;12351;52.284;9.160;2023-05-27T15:07:42;21.60;99.90
24207;DHT22;12351;52.284;9.160;2023-05-27T15:10:30;21.40;99.90
24207;DHT22;12351;52.284;9.160;2023-05-27T15:13:17;21.50;99.90
24207;DHT22;12351;52.284;9.160;2023-05-27T15:16:06;21.50;99.90
24207;DHT22;12351;52.284;9.160;2023-05-27T15:18:54;21.10;99.90
24207;DHT22;12351;52.284;9.160;2023-05-27T15:21:42;21.50;99.90
24207;DHT22;12351;52.284;9.160;2023-05-27T15:24:30;21.40;99.90
24207;DHT22;12351;52.284;9.160;2023-05-27T15:27:17;21.30;99.90
24207;DHT22;12351;52.284;9.160;2023-05-27T15:30:05;21.50;99.90
24207;DHT22;12351;52.284;9.160;2023-05-27T15:32:57;21.50;99.90
24207;DHT22;12351;52.284;9.160;2023-05-27T15:35:47;21.80;99.90
24207;DHT22;12351;52.284;9.160;2023-05-27T15:38:34;22.00;99.90
24207;DHT22;12351;52.284;9.160;2023-05-27T15:41:22;21.90;99.90
24207;DHT22;12351;52.284;9.160;2023-05-27T15:44:09;22.00;99.90
24207;DHT22;12351;52.284;9.160;2023-05-27T15:46:58;21.90;99.90
24207;DHT22;12351;52.284;9.160;2023-05-27T15:49:46;21.60;99.90
24207;DHT22;12351;52.284;9.160;2023-05-27T15:52:34;21.40;99.90
24207;DHT22;12351;52.284;9.160;2023-05-27T15:55:22;21.40;99.90
24207;DHT22;12351;52.284;9.160;2023-05-27T15:58:09;21.70;99.90
24207;DHT22;12351;52.284;9.160;2023-05-27T16:00:57;21.90;99.90
24207;DHT22;12351;52.284;9.160;2023-05-27T16:03:44;21.90;99.90
24207;DHT22;12351;52.284;9.160;2023-05-27T16:06:32;21.80;99.90
24207;DHT22;12351;52.284;9.160;2023-05-27T16:09:20;21.70;99.90
24207;DHT22;12351;52.284;9.160;2023-05-27T16:12:08;21.60;99.90
24207;DHT22;12351;52.284;9.160;2023-05-27T16:14:56;21.60;99.90
24207;DHT22;12351;52.284;9.160;2023-05-27T16:17:44;21.40;99.90
24207;DHT22;12351;52.284;9.160;2023-05-27T16:20:32;21.40;99.90
24207;DHT22;12351;52.284;9.160;2023-05-27T16:23:20;21.40;99.90
24207;DHT22;12351;52.284;9.160;2023-05-27T16:26:07;21.60;99.90
24207;DHT22;12351;52.284;9.160;2023-05-27T16:28:54;21.70;99.90
24207;DHT22;12351;52.284;9.160;2023-05-27T16:31:41;21.50;99.90
24207;DHT22;12351;52.284;9.160;2023-05-27T16:34:29;21.60;99.90
24207;DHT22;12351;52.284;9.160;2023-05-27T16:37:17;21.60;99.90
24207;DHT22;12351;52.284;9.160;2023-05-27T16:40:05;21.50;99.90
24207;DHT22;12351;52.284;9.160;2023-05-27T16:42:54;21.70;99.90
24207;DHT22;12351;52.284;9.160;2023-05-27T16:45:42;21.80;99.90
24207;DHT22;12351;52.284;9.160;2023-05-27T16:48:30;21.60;99.90
24207;DHT22;12351;52.284;9.160;2023-05-27T16:51:20;21.70;99.90
24207;DHT22;12351;52.284;9.160;2023-05-27T16:54:07;21.80;99.90
24207;DHT22;12351;52.284;9.160;2023-05-27T16:56:55;21.40;99.90
24207;DHT22;12351;52.284;9.160;2023-05-27T16:59:43;21.60;99.90
24207;DHT22;12351;52.284;9.160;2023-05-27T17:02:31;21.50;99.90
24207;DHT22;12351;52.284;9.160;2023-05-27T17:05:17;21.70;99.90
24207;DHT22;12351;52.284;9.160;2023-05-27T17:08:06;21.70;99.90
24207;DHT22;12351;52.284;9.160;2023-05-27T17:10:54;21.80;99.90
24207;DHT22;12351;52.284;9.160;2023-05-27T17:13:42;21.60;99.90
24207;DHT22;12351;52.284;9.160;2023-05-27T17:16:30;21.60;99.90
24207;DHT22;12351;52.284;9.160;2023-05-27T17:19:17;21.80;99.90
24207;DHT22;12351;52.284;9.160;2023-05-27T17:22:04;21.70;99.90
24207;DHT22;12351;52.284;9.160;2023-05-27T17:24:52;21.80;99.90
24207;DHT22;12351;52.284;9.160;2023-05-27T17:27:40;21.90;99.90
24207;DHT22;12351;52.284;9.160;2023-05-27T17:30:28;21.90;99.90
24207;DHT22;12351;52.284;9.160;2023-05-27T17:33:16;21.70;99.90
24207;DHT22;12351;52.284;9.160;2023-05-27T17:36:04;21.80;99.90
24207;DHT22;12351;52.284;9.160;2023-05-27T17:38:52;21.70;99.90
24207;DHT22;12351;52.284;9.160;2023-05-27T17:41:40;21.80;99.90
24207;DHT22;12351;52.284;9.160;2023-05-27T17:44:29;21.80;99.90
24207;DHT22;12351;52.284;9.160;2023-05-27T17:47:16;21.70;99.90
24207;DHT22;12351;52.284;9.160;2023-05-27T17:50:05;21.80;99.90
24207;DHT22;12351;52.284;9.160;2023-05-27T17:52:53;21.80;99.90
24207;DHT22;12351;52.284;9.160;2023-05-27T17:55:40;21.80;99.90
24207;DHT22;12351;52.284;9.160;2023-05-27T17:58:28;21.90;99.90
24207;DHT22;12351;52.284;9.160;2023-05-27T18:01:16;21.90;99.90
24207;DHT22;12351;52.284;9.160;2023-05-27T18:04:04;21.90;99.90